sensor_id;sensor_type;location;lat;lon;timestamp;pressure;altitude;pressure_sealevel;temperature;humidity
68758;BME280;55747;51.998;4.466;2023-05-16T00:01:47;56548.13;;;-144.48;100.00
68758;BME280;55747;51.998;4.466;2023-05-16T00:04:12;56546.06;;;-144.48;100.00
68758;BME280;55747;51.998;4.466;2023-05-16T00:06:37;56568.81;;;-144.48;100.00
68758;BME280;55747;51.998;4.466;2023-05-16T00:09:03;56568.81;;;-144.48;100.00
68758;BME280;55747;51.998;4.466;2023-05-16T00:11:28;56560.53;;;-144.48;100.00
68758;BME280;55747;51.998;4.466;2023-05-16T00:13:53;56521.25;;;-144.48;100.00
68758;BME280;55747;51.998;4.466;2023-05-16T00:16:18;56531.59;;;-144.48;100.00
68758;BME280;55747;51.998;4.466;2023-05-16T00:18:45;56577.09;;;-144.48;100.00
68758;BME280;55747;51.998;4.466;2023-05-16T00:21:10;56579.16;;;-144.48;100.00
68758;BME280;55747;51.998;4.466;2023-05-16T00:23:36;56587.41;;;-144.48;100.00
68758;BME280;55747;51.998;4.466;2023-05-16T00:26:01;56531.59;;;-144.48;100.00
68758;BME280;55747;51.998;4.466;2023-05-16T00:28:26;56566.75;;;-144.48;100.00
68758;BME280;55747;51.998;4.466;2023-05-16T00:30:51;56601.91;;;-144.48;100.00
68758;BME280;55747;51.998;4.466;2023-05-16T00:33:17;56541.94;;;-144.48;100.00
68758;BME280;55747;51.998;4.466;2023-05-16T00:35:42;56544.00;;;-144.48;100.00
68758;BME280;55747;51.998;4.466;2023-05-16T00:38:07;56589.50;;;-144.48;100.00
68758;BME280;55747;51.998;4.466;2023-05-16T00:40:32;56544.00;;;-144.48;100.00
68758;BME280;55747;51.998;4.466;2023-05-16T00:42:58;56558.47;;;-144.48;100.00
68758;BME280;55747;51.998;4.466;2023-05-16T00:45:23;56589.50;;;-144.48;100.00
68758;BME280;55747;51.998;4.466;2023-05-16T00:47:49;56564.69;;;-144.48;100.00
68758;BME280;55747;51.998;4.466;2023-05-16T00:50:15;56599.81;;;-144.48;100.00
68758;BME280;55747;51.998;4.466;2023-05-16T00:52:40;56583.28;;;-144.48;100.00
68758;BME280;55747;51.998;4.466;2023-05-16T00:55:05;56595.69;;;-144.48;100.00
68758;BME280;55747;51.998;4.466;2023-05-16T00:57:31;56566.75;;;-144.48;100.00
68758;BME280;55747;51.998;4.466;2023-05-16T00:59:56;56556.41;;;-144.48;100.00
68758;BME280;55747;51.998;4.466;2023-05-16T01:02:21;56579.16;;;-144.48;100.00
68758;BME280;55747;51.998;4.466;2023-05-16T01:04:47;56566.75;;;-144.48;100.00
68758;BME280;55747;51.998;4.466;2023-05-16T01:07:12;56554.34;;;-144.48;100.00
68758;BME280;55747;51.998;4.466;2023-05-16T01:09:38;56533.66;;;-144.48;100.00
68758;BME280;55747;51.998;4.466;2023-05-16T01:14:42;56587.41;;;-144.48;100.00
68758;BME280;55747;51.998;4.466;2023-05-16T01:27:35;56560.53;;;-144.48;100.00
68758;BME280;55747;51.998;4.466;2023-05-16T01:30:10;56566.75;;;-144.48;100.00
68758;BME280;55747;51.998;4.466;2023-05-16T01:32:37;56558.47;;;-144.48;100.00
68758;BME280;55747;51.998;4.466;2023-05-16T01:35:02;56591.56;;;-144.48;100.00
68758;BME280;55747;51.998;4.466;2023-05-16T01:37:29;56568.81;;;-144.48;100.00
68758;BME280;55747;51.998;4.466;2023-05-16T01:39:58;56539.88;;;-144.48;100.00
68758;BME280;55747;51.998;4.466;2023-05-16T01:42:30;56577.09;;;-144.48;100.00
68758;BME280;55747;51.998;4.466;2023-05-16T01:44:59;56562.63;;;-144.48;100.00
68758;BME280;55747;51.998;4.466;2023-05-16T01:47:27;56558.47;;;-144.48;100.00
68758;BME280;55747;51.998;4.466;2023-05-16T01:50:07;56546.06;;;-144.48;100.00
68758;BME280;55747;51.998;4.466;2023-05-16T01:52:35;56556.41;;;-144.48;100.00
68758;BME280;55747;51.998;4.466;2023-05-16T01:55:02;56566.75;;;-144.48;100.00
68758;BME280;55747;51.998;4.466;2023-05-16T01:57:28;56570.88;;;-144.48;100.00
68758;BME280;55747;51.998;4.466;2023-05-16T01:59:55;56537.81;;;-144.48;100.00
68758;BME280;55747;51.998;4.466;2023-05-16T02:02:20;56564.69;;;-144.48;100.00
68758;BME280;55747;51.998;4.466;2023-05-16T02:04:45;56562.63;;;-144.48;100.00
68758;BME280;55747;51.998;4.466;2023-05-16T02:07:11;56570.88;;;-144.48;100.00
68758;BME280;55747;51.998;4.466;2023-05-16T02:09:38;56593.63;;;-144.48;100.00
68758;BME280;55747;51.998;4.466;2023-05-16T02:12:03;56556.41;;;-144.48;100.00
68758;BME280;55747;51.998;4.466;2023-05-16T02:14:28;56554.34;;;-144.48;100.00
68758;BME280;55747;51.998;4.466;2023-05-16T02:16:54;56531.59;;;-144.48;100.00
68758;BME280;55747;51.998;4.466;2023-05-16T02:19:19;56581.22;;;-144.48;100.00
68758;BME280;55747;51.998;4.466;2023-05-16T02:21:44;56568.81;;;-144.48;100.00
68758;BME280;55747;51.998;4.466;2023-05-16T02:24:09;56568.81;;;-144.48;100.00
68758;BME280;55747;51.998;4.466;2023-05-16T02:26:35;56562.63;;;-144.48;100.00
68758;BME280;55747;51.998;4.466;2023-05-16T02:29:00;56583.28;;;-144.48;100.00
68758;BME280;55747;51.998;4.466;2023-05-16T02:31:26;56552.28;;;-144.48;100.00
68758;BME280;55747;51.998;4.466;2023-05-16T02:33:51;56595.69;;;-144.48;100.00
68758;BME280;55747;51.998;4.466;2023-05-16T02:36:16;56566.75;;;-144.48;100.00
68758;BME280;55747;51.998;4.466;2023-05-16T02:38:41;56558.47;;;-144.48;100.00
68758;BME280;55747;51.998;4.466;2023-05-16T02:41:06;56577.09;;;-144.48;100.00
68758;BME280;55747;51.998;4.466;2023-05-16T02:43:32;56544.00;;;-144.48;100.00
68758;BME280;55747;51.998;4.466;2023-05-16T02:45:57;56572.94;;;-144.48;100.00
68758;BME280;55747;51.998;4.466;2023-05-16T02:48:22;56577.09;;;-144.48;100.00
68758;BME280;55747;51.998;4.466;2023-05-16T02:50:47;56624.63;;;-144.48;100.00
68758;BME280;55747;51.998;4.466;2023-05-16T02:53:12;56589.50;;;-144.48;100.00
68758;BME280;55747;51.998;4.466;2023-05-16T02:55:38;56554.34;;;-144.48;100.00
68758;BME280;55747;51.998;4.466;2023-05-16T02:58:03;56606.03;;;-144.48;100.00
68758;BME280;55747;51.998;4.466;2023-05-16T03:00:29;56558.47;;;-144.48;100.00
68758;BME280;55747;51.998;4.466;2023-05-16T03:02:54;56583.28;;;-144.48;100.00
68758;BME280;55747;51.998;4.466;2023-05-16T03:05:19;56535.75;;;-144.48;100.00
68758;BME280;55747;51.998;4.466;2023-05-16T03:07:44;56570.88;;;-144.48;100.00
68758;BME280;55747;51.998;4.466;2023-05-16T03:10:10;56587.41;;;-144.48;100.00
68758;BME280;55747;51.998;4.466;2023-05-16T03:12:35;56606.03;;;-144.48;100.00
68758;BME280;55747;51.998;4.466;2023-05-16T03:15:00;56585.34;;;-144.48;100.00
68758;BME280;55747;51.998;4.466;2023-05-16T03:17:26;56570.88;;;-144.48;100.00
68758;BME280;55747;51.998;4.466;2023-05-16T03:19:54;56556.41;;;-144.48;100.00
68758;BME280;55747;51.998;4.466;2023-05-16T03:22:19;56564.69;;;-144.48;100.00
68758;BME280;55747;51.998;4.466;2023-05-16T03:24:44;56608.09;;;-144.48;100.00
68758;BME280;55747;51.998;4.466;2023-05-16T03:27:10;56570.88;;;-144.48;100.00
68758;BME280;55747;51.998;4.466;2023-05-16T03:29:35;56603.97;;;-144.48;100.00
68758;BME280;55747;51.998;4.466;2023-05-16T03:32:01;56566.75;;;-144.48;100.00
68758;BME280;55747;51.998;4.466;2023-05-16T03:34:26;56492.31;;;-144.48;100.00
68758;BME280;55747;51.998;4.466;2023-05-16T03:36:52;56566.75;;;-144.48;100.00
68758;BME280;55747;51.998;4.466;2023-05-16T03:39:17;56587.41;;;-144.48;100.00
68758;BME280;55747;51.998;4.466;2023-05-16T03:41:42;56587.41;;;-144.48;100.00
68758;BME280;55747;51.998;4.466;2023-05-16T03:44:08;56544.00;;;-144.48;100.00
68758;BME280;55747;51.998;4.466;2023-05-16T03:46:33;56595.69;;;-144.48;100.00
68758;BME280;55747;51.998;4.466;2023-05-16T03:48:59;56560.53;;;-144.48;100.00
68758;BME280;55747;51.998;4.466;2023-05-16T03:51:24;56521.25;;;-144.48;100.00
68758;BME280;55747;51.998;4.466;2023-05-16T03:53:49;56544.00;;;-144.48;100.00
68758;BME280;55747;51.998;4.466;2023-05-16T03:56:15;56577.09;;;-144.48;100.00
68758;BME280;55747;51.998;4.466;2023-05-16T03:58:40;56562.63;;;-144.48;100.00
68758;BME280;55747;51.998;4.466;2023-05-16T04:01:05;56577.09;;;-144.48;100.00
68758;BME280;55747;51.998;4.466;2023-05-16T04:03:30;56556.41;;;-144.48;100.00
68758;BME280;55747;51.998;4.466;2023-05-16T04:05:57;56599.81;;;-144.48;100.00
68758;BME280;55747;51.998;4.466;2023-05-16T04:08:22;56595.69;;;-144.48;100.00
68758;BME280;55747;51.998;4.466;2023-05-16T04:10:47;56546.06;;;-144.48;100.00
68758;BME280;55747;51.998;4.466;2023-05-16T04:13:13;56579.16;;;-144.48;100.00
68758;BME280;55747;51.998;4.466;2023-05-16T04:15:39;56579.16;;;-144.48;100.00
68758;BME280;55747;51.998;4.466;2023-05-16T04:18:04;56564.69;;;-144.48;100.00
68758;BME280;55747;51.998;4.466;2023-05-16T04:20:29;56606.03;;;-144.48;100.00
68758;BME280;55747;51.998;4.466;2023-05-16T04:22:55;56527.47;;;-144.48;100.00
68758;BME280;55747;51.998;4.466;2023-05-16T04:25:20;56560.53;;;-144.48;100.00
68758;BME280;55747;51.998;4.466;2023-05-16T04:27:45;56556.41;;;-144.48;100.00
68758;BME280;55747;51.998;4.466;2023-05-16T04:30:10;56556.41;;;-144.48;100.00
68758;BME280;55747;51.998;4.466;2023-05-16T04:32:36;56572.94;;;-144.48;100.00
68758;BME280;55747;51.998;4.466;2023-05-16T04:35:01;56568.81;;;-144.48;100.00
68758;BME280;55747;51.998;4.466;2023-05-16T04:37:26;56593.63;;;-144.48;100.00
68758;BME280;55747;51.998;4.466;2023-05-16T04:39:52;56558.47;;;-144.48;100.00
68758;BME280;55747;51.998;4.466;2023-05-16T04:42:18;56583.28;;;-144.48;100.00
68758;BME280;55747;51.998;4.466;2023-05-16T04:44:43;56589.50;;;-144.48;100.00
68758;BME280;55747;51.998;4.466;2023-05-16T04:47:08;56568.81;;;-144.48;100.00
68758;BME280;55747;51.998;4.466;2023-05-16T04:49:34;56564.69;;;-144.48;100.00
68758;BME280;55747;51.998;4.466;2023-05-16T04:51:59;56579.16;;;-144.48;100.00
68758;BME280;55747;51.998;4.466;2023-05-16T04:54:24;56595.69;;;-144.48;100.00
68758;BME280;55747;51.998;4.466;2023-05-16T04:56:50;56572.94;;;-144.48;100.00
68758;BME280;55747;51.998;4.466;2023-05-16T04:59:15;56591.56;;;-144.48;100.00
68758;BME280;55747;51.998;4.466;2023-05-16T05:01:40;56579.16;;;-144.48;100.00
68758;BME280;55747;51.998;4.466;2023-05-16T05:04:06;56599.81;;;-144.48;100.00
68758;BME280;55747;51.998;4.466;2023-05-16T05:06:32;56570.88;;;-144.48;100.00
68758;BME280;55747;51.998;4.466;2023-05-16T05:08:58;56558.47;;;-144.48;100.00
68758;BME280;55747;51.998;4.466;2023-05-16T05:11:23;56579.16;;;-144.48;100.00
68758;BME280;55747;51.998;4.466;2023-05-16T05:13:48;56552.28;;;-144.48;100.00
68758;BME280;55747;51.998;4.466;2023-05-16T05:16:13;56568.81;;;-144.48;93.64
68758;BME280;55747;51.998;4.466;2023-05-16T05:18:38;56548.13;;;-144.48;85.81
68758;BME280;55747;51.998;4.466;2023-05-16T05:21:04;56544.00;;;-144.48;80.62
68758;BME280;55747;51.998;4.466;2023-05-16T05:23:29;56531.59;;;-144.48;78.61
68758;BME280;55747;51.998;4.466;2023-05-16T05:25:54;56579.16;;;-144.48;76.11
68758;BME280;55747;51.998;4.466;2023-05-16T05:28:20;56529.53;;;-144.48;73.91
68758;BME280;55747;51.998;4.466;2023-05-16T05:30:45;56554.34;;;-144.48;73.61
68758;BME280;55747;51.998;4.466;2023-05-16T05:33:12;56539.88;;;-144.48;72.00
68758;BME280;55747;51.998;4.466;2023-05-16T05:35:38;56529.53;;;-144.48;70.29
68758;BME280;55747;51.998;4.466;2023-05-16T05:38:03;56525.41;;;-144.48;65.83
68758;BME280;55747;51.998;4.466;2023-05-16T05:40:28;56541.94;;;-144.48;66.38
68758;BME280;55747;51.998;4.466;2023-05-16T05:42:54;56548.13;;;-144.48;65.52
68758;BME280;55747;51.998;4.466;2023-05-16T05:45:19;56544.00;;;-144.48;67.84
68758;BME280;55747;51.998;4.466;2023-05-16T05:47:44;56523.34;;;-144.48;67.91
68758;BME280;55747;51.998;4.466;2023-05-16T05:50:10;56519.19;;;-144.48;68.09
68758;BME280;55747;51.998;4.466;2023-05-16T05:52:39;56517.13;;;-144.48;65.45
68758;BME280;55747;51.998;4.466;2023-05-16T05:55:04;56541.94;;;-144.48;65.83
68758;BME280;55747;51.998;4.466;2023-05-16T05:57:30;56527.47;;;-144.48;66.71
68758;BME280;55747;51.998;4.466;2023-05-16T05:59:55;56535.75;;;-144.48;67.27
68758;BME280;55747;51.998;4.466;2023-05-16T06:02:20;56533.66;;;-144.48;69.82
68758;BME280;55747;51.998;4.466;2023-05-16T06:04:46;56550.22;;;-144.48;72.09
68758;BME280;55747;51.998;4.466;2023-05-16T06:07:11;56541.94;;;-144.48;71.60
68758;BME280;55747;51.998;4.466;2023-05-16T06:09:36;56523.34;;;-144.48;70.50
68758;BME280;55747;51.998;4.466;2023-05-16T06:12:02;56513.00;;;-144.48;69.45
68758;BME280;55747;51.998;4.466;2023-05-16T06:14:28;56517.13;;;-144.48;67.84
68758;BME280;55747;51.998;4.466;2023-05-16T06:16:53;56517.13;;;-144.48;64.25
68758;BME280;55747;51.998;4.466;2023-05-16T06:19:18;56510.94;;;-144.48;64.07
68758;BME280;55747;51.998;4.466;2023-05-16T06:21:43;56535.75;;;-144.48;62.49
68758;BME280;55747;51.998;4.466;2023-05-16T06:24:09;56502.66;;;-144.48;61.76
68758;BME280;55747;51.998;4.466;2023-05-16T06:26:34;56502.66;;;-144.48;61.13
68758;BME280;55747;51.998;4.466;2023-05-16T06:29:02;56527.47;;;-144.48;57.99
68758;BME280;55747;51.998;4.466;2023-05-16T06:31:27;56502.66;;;-144.48;58.61
68758;BME280;55747;51.998;4.466;2023-05-16T06:33:53;56517.13;;;-144.48;56.30
68758;BME280;55747;51.998;4.466;2023-05-16T06:36:18;56498.53;;;-144.48;56.13
68758;BME280;55747;51.998;4.466;2023-05-16T06:38:43;56494.38;;;-144.48;56.44
68758;BME280;55747;51.998;4.466;2023-05-16T06:41:09;56502.66;;;-144.48;55.65
68758;BME280;55747;51.998;4.466;2023-05-16T06:43:34;56502.66;;;-144.48;53.76
68758;BME280;55747;51.998;4.466;2023-05-16T06:46:00;56529.53;;;-144.48;52.39
68758;BME280;55747;51.998;4.466;2023-05-16T06:48:25;56500.59;;;-144.48;53.59
68758;BME280;55747;51.998;4.466;2023-05-16T06:50:50;56457.19;;;-144.48;53.93
68758;BME280;55747;51.998;4.466;2023-05-16T06:53:18;56492.31;;;-144.48;54.06
68758;BME280;55747;51.998;4.466;2023-05-16T06:55:43;56465.44;;;-144.48;53.59
68758;BME280;55747;51.998;4.466;2023-05-16T06:58:09;56504.72;;;-144.48;52.62
68758;BME280;55747;51.998;4.466;2023-05-16T07:00:34;56484.06;;;-144.48;51.32
68758;BME280;55747;51.998;4.466;2023-05-16T07:02:59;56488.19;;;-144.48;48.06
68758;BME280;55747;51.998;4.466;2023-05-16T07:05:25;56486.13;;;-144.48;48.59
68758;BME280;55747;51.998;4.466;2023-05-16T07:07:50;56438.56;;;-144.48;48.57
68758;BME280;55747;51.998;4.466;2023-05-16T07:10:15;56479.91;;;-144.48;48.87
68758;BME280;55747;51.998;4.466;2023-05-16T07:12:41;56463.38;;;-144.48;46.55
68758;BME280;55747;51.998;4.466;2023-05-16T07:15:06;56481.97;;;-144.48;46.92
68758;BME280;55747;51.998;4.466;2023-05-16T07:17:32;56467.50;;;-144.48;47.88
68758;BME280;55747;51.998;4.466;2023-05-16T07:19:57;56486.13;;;-144.48;47.63
68758;BME280;55747;51.998;4.466;2023-05-16T07:22:22;56465.44;;;-144.48;48.13
68758;BME280;55747;51.998;4.466;2023-05-16T07:24:47;56461.31;;;-144.48;47.74
68758;BME280;55747;51.998;4.466;2023-05-16T07:27:13;56479.91;;;-144.48;45.25
68758;BME280;55747;51.998;4.466;2023-05-16T07:29:38;56461.31;;;-144.48;44.18
68758;BME280;55747;51.998;4.466;2023-05-16T07:32:03;56467.50;;;-144.48;42.32
68758;BME280;55747;51.998;4.466;2023-05-16T07:34:28;56426.16;;;-144.48;41.48
68758;BME280;55747;51.998;4.466;2023-05-16T07:36:54;56432.38;;;-144.48;41.64
68758;BME280;55747;51.998;4.466;2023-05-16T07:39:19;56436.50;;;-144.48;40.17
68758;BME280;55747;51.998;4.466;2023-05-16T07:41:44;56428.22;;;-144.48;39.20
68758;BME280;55747;51.998;4.466;2023-05-16T07:44:09;56415.81;;;-144.48;40.47
68758;BME280;55747;51.998;4.466;2023-05-16T07:46:37;56393.09;;;-144.48;40.79
68758;BME280;55747;51.998;4.466;2023-05-16T07:49:02;56440.63;;;-144.48;40.31
68758;BME280;55747;51.998;4.466;2023-05-16T07:51:27;56424.09;;;-144.48;41.33
68758;BME280;55747;51.998;4.466;2023-05-16T07:53:53;56432.38;;;-144.48;39.57
68758;BME280;55747;51.998;4.466;2023-05-16T07:56:18;56461.31;;;-144.48;40.22
68758;BME280;55747;51.998;4.466;2023-05-16T07:58:43;56467.50;;;-144.48;39.95
68758;BME280;55747;51.998;4.466;2023-05-16T08:01:09;56444.78;;;-144.48;39.25
68758;BME280;55747;51.998;4.466;2023-05-16T08:03:34;56422.03;;;-144.48;41.14
68758;BME280;55747;51.998;4.466;2023-05-16T08:06:00;56469.56;;;-144.48;40.32
68758;BME280;55747;51.998;4.466;2023-05-16T08:08:25;56434.44;;;-144.48;42.42
68758;BME280;55747;51.998;4.466;2023-05-16T08:10:50;56448.91;;;-144.48;42.62
68758;BME280;55747;51.998;4.466;2023-05-16T08:13:16;56422.03;;;-144.48;41.61
68758;BME280;55747;51.998;4.466;2023-05-16T08:15:41;56415.81;;;-144.48;40.50
68758;BME280;55747;51.998;4.466;2023-05-16T08:18:11;56430.28;;;-144.48;41.88
68758;BME280;55747;51.998;4.466;2023-05-16T08:20:36;56442.69;;;-144.48;42.54
68758;BME280;55747;51.998;4.466;2023-05-16T08:23:02;56442.69;;;-144.48;45.20
68758;BME280;55747;51.998;4.466;2023-05-16T08:25:27;56459.25;;;-144.48;46.90
68758;BME280;55747;51.998;4.466;2023-05-16T08:27:53;56457.19;;;-144.48;47.48
68758;BME280;55747;51.998;4.466;2023-05-16T08:30:18;56488.19;;;-144.48;50.19
68758;BME280;55747;51.998;4.466;2023-05-16T08:32:43;56459.25;;;-144.48;48.79
68758;BME280;55747;51.998;4.466;2023-05-16T08:35:08;56436.50;;;-144.48;44.98
68758;BME280;55747;51.998;4.466;2023-05-16T08:37:35;56380.69;;;-144.48;41.41
68758;BME280;55747;51.998;4.466;2023-05-16T08:40:00;56428.22;;;-144.48;39.03
68758;BME280;55747;51.998;4.466;2023-05-16T08:42:25;56432.38;;;-144.48;40.51
68758;BME280;55747;51.998;4.466;2023-05-16T08:44:51;56409.63;;;-144.48;38.35
68758;BME280;55747;51.998;4.466;2023-05-16T08:47:17;56419.97;;;-144.48;37.15
68758;BME280;55747;51.998;4.466;2023-05-16T08:49:42;56411.69;;;-144.48;36.38
68758;BME280;55747;51.998;4.466;2023-05-16T08:52:08;56413.75;;;-144.48;35.45
68758;BME280;55747;51.998;4.466;2023-05-16T08:54:33;56384.81;;;-144.48;34.31
68758;BME280;55747;51.998;4.466;2023-05-16T08:56:59;56360.00;;;-144.48;34.05
68758;BME280;55747;51.998;4.466;2023-05-16T08:59:25;56376.53;;;-144.48;33.46
68758;BME280;55747;51.998;4.466;2023-05-16T09:01:50;56374.47;;;-144.48;34.47
68758;BME280;55747;51.998;4.466;2023-05-16T09:04:16;56353.81;;;-144.48;33.19
68758;BME280;55747;51.998;4.466;2023-05-16T09:06:41;56391.00;;;-144.48;32.49
68758;BME280;55747;51.998;4.466;2023-05-16T09:09:06;56401.34;;;-144.48;34.37
68758;BME280;55747;51.998;4.466;2023-05-16T09:11:34;56374.47;;;-144.48;36.27
68758;BME280;55747;51.998;4.466;2023-05-16T09:13:59;56384.81;;;-144.48;36.04
68758;BME280;55747;51.998;4.466;2023-05-16T09:16:25;56364.13;;;-144.48;35.07
68758;BME280;55747;51.998;4.466;2023-05-16T09:18:58;56357.94;;;-144.48;34.43
68758;BME280;55747;51.998;4.466;2023-05-16T09:21:27;56357.94;;;-144.48;34.01
68758;BME280;55747;51.998;4.466;2023-05-16T09:23:52;56360.00;;;-144.48;35.33
68758;BME280;55747;51.998;4.466;2023-05-16T09:26:18;56409.63;;;-144.48;36.25
68758;BME280;55747;51.998;4.466;2023-05-16T09:28:43;56355.88;;;-144.48;35.78
68758;BME280;55747;51.998;4.466;2023-05-16T09:33:46;56378.63;;;-144.48;37.61
68758;BME280;55747;51.998;4.466;2023-05-16T09:36:12;56374.47;;;-144.48;35.61
68758;BME280;55747;51.998;4.466;2023-05-16T09:38:39;56378.63;;;-144.48;38.23
68758;BME280;55747;51.998;4.466;2023-05-16T09:41:04;56382.75;;;-144.48;36.75
68758;BME280;55747;51.998;4.466;2023-05-16T09:43:30;56380.69;;;-144.48;36.37
68758;BME280;55747;51.998;4.466;2023-05-16T09:45:57;56382.75;;;-144.48;35.59
68758;BME280;55747;51.998;4.466;2023-05-16T09:48:23;56353.81;;;-144.48;35.64
68758;BME280;55747;51.998;4.466;2023-05-16T09:50:52;56335.19;;;-144.48;35.34
68758;BME280;55747;51.998;4.466;2023-05-16T09:53:28;56351.75;;;-144.48;33.80
68758;BME280;55747;51.998;4.466;2023-05-16T09:56:03;56335.19;;;-144.48;32.88
68758;BME280;55747;51.998;4.466;2023-05-16T09:58:30;56326.94;;;-144.48;32.67
68758;BME280;55747;51.998;4.466;2023-05-16T10:00:55;56343.47;;;-144.48;32.61
68758;BME280;55747;51.998;4.466;2023-05-16T10:03:21;56318.66;;;-144.48;32.40
68758;BME280;55747;51.998;4.466;2023-05-16T10:05:47;56347.59;;;-144.48;32.19
68758;BME280;55747;51.998;4.466;2023-05-16T10:08:12;56366.22;;;-144.48;31.78
68758;BME280;55747;51.998;4.466;2023-05-16T10:10:39;56345.53;;;-144.48;31.32
68758;BME280;55747;51.998;4.466;2023-05-16T10:13:04;56318.66;;;-144.48;33.39
68758;BME280;55747;51.998;4.466;2023-05-16T10:15:31;56362.06;;;-144.48;32.87
68758;BME280;55747;51.998;4.466;2023-05-16T10:17:56;56351.75;;;-144.48;34.75
68758;BME280;55747;51.998;4.466;2023-05-16T10:20:23;56357.94;;;-144.48;34.90
68758;BME280;55747;51.998;4.466;2023-05-16T10:22:50;56355.88;;;-144.48;33.72
68758;BME280;55747;51.998;4.466;2023-05-16T10:27:51;56304.19;;;-144.48;34.19
68758;BME280;55747;51.998;4.466;2023-05-16T10:30:17;56314.53;;;-144.48;34.19
68758;BME280;55747;51.998;4.466;2023-05-16T10:32:42;56362.06;;;-144.48;33.70
68758;BME280;55747;51.998;4.466;2023-05-16T10:35:07;56351.75;;;-144.48;33.79
68758;BME280;55747;51.998;4.466;2023-05-16T10:37:33;56339.34;;;-144.48;32.65
68758;BME280;55747;51.998;4.466;2023-05-16T10:39:58;56289.72;;;-144.48;32.04
68758;BME280;55747;51.998;4.466;2023-05-16T10:42:25;56314.53;;;-144.48;33.15
68758;BME280;55747;51.998;4.466;2023-05-16T10:44:53;56324.88;;;-144.48;32.33
68758;BME280;55747;51.998;4.466;2023-05-16T10:47:20;56312.47;;;-144.48;33.63
68758;BME280;55747;51.998;4.466;2023-05-16T10:49:45;56360.00;;;-144.48;36.00
68758;BME280;55747;51.998;4.466;2023-05-16T10:52:11;56372.41;;;-144.48;36.27
68758;BME280;55747;51.998;4.466;2023-05-16T10:54:41;56360.00;;;-144.48;32.50
68758;BME280;55747;51.998;4.466;2023-05-16T10:57:16;56322.78;;;-144.48;32.73
68758;BME280;55747;51.998;4.466;2023-05-16T10:59:44;56320.72;;;-144.48;32.53
68758;BME280;55747;51.998;4.466;2023-05-16T11:04:57;56306.25;;;-144.48;31.33
68758;BME280;55747;51.998;4.466;2023-05-16T11:07:23;56320.72;;;-144.48;31.56
68758;BME280;55747;51.998;4.466;2023-05-16T11:10:35;56293.84;;;-144.48;30.96
68758;BME280;55747;51.998;4.466;2023-05-16T11:12:35;56295.91;;;-144.48;31.03
68758;BME280;55747;51.998;4.466;2023-05-16T11:15:01;56281.44;;;-144.48;31.69
68758;BME280;55747;51.998;4.466;2023-05-16T11:17:41;56310.38;;;-144.48;30.55
68758;BME280;55747;51.998;4.466;2023-05-16T11:20:06;56275.25;;;-144.48;30.24
68758;BME280;55747;51.998;4.466;2023-05-16T11:22:37;56287.66;;;-144.48;29.61
68758;BME280;55747;51.998;4.466;2023-05-16T11:25:07;56318.66;;;-144.48;29.93
68758;BME280;55747;51.998;4.466;2023-05-16T11:32:29;56331.06;;;-144.48;30.23
68758;BME280;55747;51.998;4.466;2023-05-16T11:34:55;56295.91;;;-144.48;29.51
68758;BME280;55747;51.998;4.466;2023-05-16T11:37:22;56326.94;;;-144.48;31.63
68758;BME280;55747;51.998;4.466;2023-05-16T11:39:47;56318.66;;;-144.48;29.99
68758;BME280;55747;51.998;4.466;2023-05-16T11:42:12;56308.31;;;-144.48;30.78
68758;BME280;55747;51.998;4.466;2023-05-16T11:44:38;56300.06;;;-144.48;29.15
68758;BME280;55747;51.998;4.466;2023-05-16T11:47:04;56289.72;;;-144.48;28.50
68758;BME280;55747;51.998;4.466;2023-05-16T11:49:30;56287.66;;;-144.48;28.26
68758;BME280;55747;51.998;4.466;2023-05-16T11:51:55;56271.13;;;-144.48;27.30
68758;BME280;55747;51.998;4.466;2023-05-16T11:54:21;56264.91;;;-144.48;27.97
68758;BME280;55747;51.998;4.466;2023-05-16T11:56:48;56246.31;;;-144.48;27.57
68758;BME280;55747;51.998;4.466;2023-05-16T11:59:13;56248.38;;;-144.48;28.55
68758;BME280;55747;51.998;4.466;2023-05-16T12:01:39;56221.50;;;-144.48;27.60
68758;BME280;55747;51.998;4.466;2023-05-16T12:04:12;56273.19;;;-144.48;28.31
68758;BME280;55747;51.998;4.466;2023-05-16T12:06:38;56269.03;;;-144.48;28.11
68758;BME280;55747;51.998;4.466;2023-05-16T12:09:10;56289.72;;;-144.48;28.06
68758;BME280;55747;51.998;4.466;2023-05-16T12:11:41;56252.50;;;-144.48;27.15
68758;BME280;55747;51.998;4.466;2023-05-16T12:14:07;56279.38;;;-144.48;27.74
68758;BME280;55747;51.998;4.466;2023-05-16T12:16:33;56227.69;;;-144.48;28.42
68758;BME280;55747;51.998;4.466;2023-05-16T12:19:00;56264.91;;;-144.48;26.97
68758;BME280;55747;51.998;4.466;2023-05-16T12:21:26;56281.44;;;-144.48;28.41
68758;BME280;55747;51.998;4.466;2023-05-16T12:23:54;56266.97;;;-144.48;27.61
68758;BME280;55747;51.998;4.466;2023-05-16T12:26:29;56233.91;;;-144.48;27.45
68758;BME280;55747;51.998;4.466;2023-05-16T12:29:01;56221.50;;;-144.48;27.88
68758;BME280;55747;51.998;4.466;2023-05-16T12:31:36;56285.59;;;-144.48;28.78
68758;BME280;55747;51.998;4.466;2023-05-16T12:34:02;56242.16;;;-144.48;27.88
68758;BME280;55747;51.998;4.466;2023-05-16T12:36:30;56266.97;;;-144.48;27.54
68758;BME280;55747;51.998;4.466;2023-05-16T12:38:58;56240.09;;;-144.48;27.50
68758;BME280;55747;51.998;4.466;2023-05-16T12:41:24;56244.25;;;-144.48;27.63
68758;BME280;55747;51.998;4.466;2023-05-16T12:43:49;56273.19;;;-144.48;27.63
68758;BME280;55747;51.998;4.466;2023-05-16T12:46:14;56217.38;;;-144.48;28.20
68758;BME280;55747;51.998;4.466;2023-05-16T12:48:40;56252.50;;;-144.48;27.75
68758;BME280;55747;51.998;4.466;2023-05-16T12:51:13;56242.16;;;-144.48;28.18
68758;BME280;55747;51.998;4.466;2023-05-16T12:53:47;56273.19;;;-144.48;27.95
68758;BME280;55747;51.998;4.466;2023-05-16T12:56:13;56229.75;;;-144.48;28.57